createdAt,value
2023-05-04T00:00:00.337Z,7.40
2023-05-04T00:02:30.707Z,8.45
2023-05-04T00:05:01.612Z,9.32
2023-05-04T00:07:32.095Z,9.27
2023-05-04T00:10:03.159Z,9.15
2023-05-04T00:12:35.226Z,8.73
2023-05-04T00:15:07.638Z,8.98
2023-05-04T00:17:38.029Z,9.70
2023-05-04T00:20:10.474Z,9.65
2023-05-04T00:22:41.049Z,9.05
2023-05-04T00:25:12.108Z,8.68
2023-05-04T00:27:44.016Z,8.30
2023-05-04T00:30:15.650Z,7.82
2023-05-04T00:32:46.600Z,7.90
2023-05-04T00:35:17.389Z,7.28
2023-05-04T00:37:47.582Z,7.68
2023-05-04T00:40:18.316Z,7.35
2023-05-04T00:42:49.822Z,7.07
2023-05-04T00:45:20.984Z,6.93
2023-05-04T00:47:51.719Z,7.20
2023-05-04T00:50:23.344Z,6.40
2023-05-04T00:52:56.771Z,7.25
2023-05-04T00:55:27.852Z,7.47
2023-05-04T00:58:00.171Z,6.63
2023-05-04T01:00:31.301Z,6.60
2023-05-04T01:03:01.797Z,7.47
2023-05-04T01:05:38.858Z,8.18
2023-05-04T01:08:16.077Z,7.25
2023-05-04T01:10:55.508Z,8.93
2023-05-04T01:13:28.481Z,8.82
2023-05-04T01:15:59.418Z,8.55
2023-05-04T01:18:29.966Z,8.70
2023-05-04T01:21:01.593Z,9.40
2023-05-04T01:23:35.251Z,8.30
2023-05-04T01:26:15.701Z,7.50
2023-05-04T01:28:54.197Z,7.28
2023-05-04T01:31:27.754Z,6.82
2023-05-04T01:33:58.703Z,8.00
2023-05-04T01:36:30.702Z,7.05
2023-05-04T01:39:02.346Z,6.13
2023-05-04T01:41:34.560Z,6.18
2023-05-04T01:44:06.759Z,5.97
2023-05-04T01:46:37.547Z,5.13
2023-05-04T01:49:08.218Z,5.53
2023-05-04T01:51:39.292Z,6.32
2023-05-04T01:54:11.291Z,6.22
2023-05-04T01:56:42.253Z,6.70
2023-05-04T01:59:12.653Z,6.43
2023-05-04T02:01:44.724Z,6.90
2023-05-04T02:04:15.106Z,6.75
2023-05-04T02:06:45.741Z,7.50
2023-05-04T02:09:19.404Z,6.45
2023-05-04T02:11:50.277Z,8.15
2023-05-04T02:14:21.326Z,7.13
2023-05-04T02:16:52.222Z,7.45
2023-05-04T02:19:23.887Z,7.55
2023-05-04T02:21:54.664Z,7.43
2023-05-04T02:24:27.065Z,8.07
2023-05-04T02:26:58.663Z,8.05
2023-05-04T02:29:29.369Z,8.40
2023-05-04T02:32:00.203Z,7.70
2023-05-04T02:34:32.586Z,8.07
2023-05-04T02:37:07.219Z,7.60
2023-05-04T02:39:40.190Z,7.57
2023-05-04T02:42:11.104Z,7.63
2023-05-04T02:44:42.021Z,7.35
2023-05-04T02:47:12.870Z,7.35
2023-05-04T02:49:43.511Z,6.88
2023-05-04T02:52:15.620Z,7.32
2023-05-04T02:54:48.104Z,7.22
2023-05-04T02:57:19.023Z,6.43
2023-05-04T02:59:49.464Z,7.40
2023-05-04T03:02:20.337Z,8.48
2023-05-04T03:04:50.986Z,8.63
2023-05-04T03:07:21.867Z,8.10
2023-05-04T03:09:53.582Z,9.43
2023-05-04T03:12:25.661Z,11.20
2023-05-04T03:14:56.322Z,10.85
2023-05-04T03:17:26.969Z,11.05
2023-05-04T03:19:59.190Z,10.93
2023-05-04T03:22:32.190Z,12.38
2023-05-04T03:25:04.321Z,14.68
2023-05-04T03:27:35.025Z,12.77
2023-05-04T03:30:06.837Z,12.32
2023-05-04T03:32:39.618Z,11.73
2023-05-04T03:35:10.841Z,12.75
2023-05-04T03:37:43.484Z,11.30
2023-05-04T03:40:17.538Z,11.15
2023-05-04T03:42:49.386Z,10.35
2023-05-04T03:45:20.658Z,11.10
2023-05-04T03:47:51.428Z,11.88
2023-05-04T03:50:23.761Z,11.10
2023-05-04T03:52:54.489Z,10.98
2023-05-04T03:55:28.814Z,10.05
2023-05-04T03:57:59.637Z,10.43
2023-05-04T04:00:30.937Z,10.55
2023-05-04T04:03:11.630Z,10.50
2023-05-04T04:05:42.237Z,9.50
2023-05-04T04:08:14.406Z,10.23
2023-05-04T04:10:46.982Z,10.35
2023-05-04T04:13:17.868Z,9.45
2023-05-04T04:15:48.534Z,9.68
2023-05-04T04:18:19.325Z,9.80
2023-05-04T04:20:49.680Z,9.80
2023-05-04T04:23:20.512Z,9.63
2023-05-04T04:25:54.101Z,9.52
2023-05-04T04:28:24.936Z,9.30
2023-05-04T04:30:55.420Z,9.93
2023-05-04T04:33:26.197Z,10.10
2023-05-04T04:35:56.792Z,10.45
2023-05-04T04:38:27.602Z,10.05
2023-05-04T04:40:59.447Z,9.80
2023-05-04T04:43:30.192Z,8.55
2023-05-04T04:46:00.645Z,9.60
2023-05-04T04:48:31.555Z,7.40
2023-05-04T04:51:02.001Z,8.68
2023-05-04T04:53:32.773Z,8.50
2023-05-04T04:56:05.302Z,8.90
2023-05-04T04:58:36.230Z,8.32
2023-05-04T05:01:08.349Z,7.00
2023-05-04T05:03:39.194Z,7.85
2023-05-04T05:06:09.718Z,5.70
2023-05-04T05:08:40.982Z,6.35
2023-05-04T05:11:13.019Z,5.72
2023-05-04T05:13:44.098Z,6.20
2023-05-04T05:16:14.576Z,5.65
2023-05-04T05:18:45.359Z,6.60
2023-05-04T05:21:16.157Z,7.00
2023-05-04T05:23:47.269Z,6.95
2023-05-04T05:26:19.342Z,7.55
2023-05-04T05:28:50.092Z,6.40
2023-05-04T05:31:20.612Z,6.05
2023-05-04T05:33:52.168Z,5.55
2023-05-04T05:36:22.799Z,6.28
2023-05-04T05:38:53.732Z,6.53
2023-05-04T05:41:25.726Z,6.05
2023-05-04T05:43:56.606Z,6.85
2023-05-04T05:46:28.269Z,6.78
2023-05-04T05:48:59.288Z,6.78
2023-05-04T05:51:29.822Z,6.32
2023-05-04T05:54:00.608Z,5.65
2023-05-04T05:56:32.610Z,6.00
2023-05-04T05:59:05.571Z,5.57
2023-05-04T06:01:37.623Z,4.60
2023-05-04T06:04:09.232Z,5.80
2023-05-04T06:06:39.964Z,5.28
2023-05-04T06:09:12.080Z,5.13
2023-05-04T06:11:44.497Z,4.72
2023-05-04T06:14:17.765Z,5.32
2023-05-04T06:16:49.869Z,4.80
2023-05-04T06:19:21.097Z,5.77
2023-05-04T06:21:52.420Z,5.15
2023-05-04T06:24:25.395Z,6.32
2023-05-04T06:26:58.189Z,5.47
2023-05-04T06:29:30.909Z,6.20
2023-05-04T06:32:04.418Z,8.55
2023-05-04T06:34:37.594Z,8.95
2023-05-04T06:37:09.166Z,7.18
2023-05-04T06:39:42.533Z,6.70
2023-05-04T06:42:15.661Z,6.83
2023-05-04T06:47:18.945Z,6.05
2023-05-04T06:49:53.315Z,5.93
2023-05-04T06:52:29.746Z,5.28
2023-05-04T06:55:01.988Z,5.43
2023-05-04T06:57:34.198Z,5.30
2023-05-04T07:00:07.404Z,5.70
2023-05-04T07:02:38.391Z,5.72
2023-05-04T07:05:10.971Z,5.20
2023-05-04T07:07:43.613Z,5.95
2023-05-04T07:10:15.329Z,5.70
2023-05-04T07:12:48.877Z,5.82
2023-05-04T07:15:20.076Z,5.25
2023-05-04T07:17:53.473Z,5.22
2023-05-04T07:20:26.563Z,5.65
2023-05-04T07:23:01.146Z,4.35
2023-05-04T07:25:32.504Z,4.18
2023-05-04T07:28:04.834Z,4.78
2023-05-04T07:30:36.960Z,4.03
2023-05-04T07:33:09.196Z,4.00
2023-05-04T07:35:41.318Z,4.20
2023-05-04T07:38:11.904Z,3.90
2023-05-04T07:40:47.056Z,3.60
2023-05-04T07:43:19.397Z,3.67
2023-05-04T07:45:54.464Z,4.20
2023-05-04T07:48:26.795Z,4.38
2023-05-04T07:50:58.490Z,4.15
2023-05-04T07:53:29.582Z,3.70
2023-05-04T07:56:15.183Z,3.13
2023-05-04T07:58:48.140Z,2.85
2023-05-04T08:01:22.528Z,2.88
2023-05-04T08:03:59.018Z,2.92
2023-05-04T08:06:36.871Z,2.58
2023-05-04T08:09:09.434Z,3.10
2023-05-04T08:11:42.222Z,2.20
2023-05-04T08:14:14.987Z,2.53
2023-05-04T08:16:46.208Z,2.13
2023-05-04T08:19:17.570Z,2.42
2023-05-04T08:21:49.070Z,2.78
2023-05-04T08:24:22.884Z,2.70
2023-05-04T08:27:06.496Z,2.97
2023-05-04T08:29:41.792Z,3.00
2023-05-04T08:32:12.734Z,3.35
2023-05-04T08:34:43.370Z,3.03
2023-05-04T08:37:14.527Z,3.17
2023-05-04T08:39:45.230Z,3.10
2023-05-04T08:42:16.081Z,3.78
2023-05-04T08:44:48.204Z,3.38
2023-05-04T08:47:20.305Z,3.67
2023-05-04T08:49:50.959Z,3.00
2023-05-04T08:52:28.232Z,3.45
2023-05-04T08:55:01.656Z,2.97
2023-05-04T08:57:34.651Z,3.00
2023-05-04T09:00:11.159Z,2.92
2023-05-04T09:02:43.374Z,2.72
2023-05-04T09:05:16.603Z,3.15
2023-05-04T09:07:51.132Z,3.30
2023-05-04T09:10:22.345Z,3.75
2023-05-04T09:12:56.090Z,3.67
2023-05-04T09:15:29.588Z,3.08
2023-05-04T09:18:07.328Z,3.38
2023-05-04T09:20:47.446Z,4.25
2023-05-04T09:23:19.120Z,3.80
2023-05-04T09:25:51.997Z,3.50
2023-05-04T09:28:35.100Z,2.95
2023-05-04T09:31:08.558Z,3.13
2023-05-04T09:33:39.522Z,3.50
2023-05-04T09:36:17.329Z,3.70
2023-05-04T09:38:49.036Z,3.67
2023-05-04T09:41:19.991Z,3.30
2023-05-04T09:43:50.959Z,3.50
2023-05-04T09:46:23.299Z,3.15
2023-05-04T09:48:55.302Z,3.47
2023-05-04T09:51:27.697Z,3.50
2023-05-04T09:54:02.915Z,3.00
2023-05-04T09:56:50.808Z,3.83
2023-05-04T09:59:22.185Z,3.30
2023-05-04T10:01:55.347Z,4.10
2023-05-04T10:04:27.066Z,3.38
2023-05-04T10:06:58.011Z,3.28
2023-05-04T10:09:32.661Z,3.05
2023-05-04T10:12:05.336Z,3.22
2023-05-04T10:14:36.969Z,3.17
2023-05-04T10:17:19.409Z,2.85
2023-05-04T10:20:08.574Z,3.17
2023-05-04T10:23:05.523Z,2.90
2023-05-04T10:26:19.055Z,2.92
2023-05-04T10:29:06.073Z,3.08
2023-05-04T10:31:44.980Z,2.70
2023-05-04T10:34:31.155Z,2.65
2023-05-04T10:37:03.770Z,2.97
2023-05-04T10:39:36.416Z,2.92
2023-05-04T10:42:09.485Z,2.78
2023-05-04T10:44:55.491Z,2.92
2023-05-04T10:47:33.051Z,2.80
2023-05-04T10:50:08.120Z,2.67
2023-05-04T10:52:49.632Z,2.60
2023-05-04T10:55:21.156Z,2.92
2023-05-04T10:57:54.602Z,2.83
2023-05-04T11:00:26.245Z,2.33
2023-05-04T11:03:05.539Z,2.53
2023-05-04T11:05:44.736Z,2.30
2023-05-04T11:08:20.090Z,2.80
2023-05-04T11:11:01.960Z,2.50
2023-05-04T11:13:35.194Z,2.33
2023-05-04T11:16:07.574Z,2.55
2023-05-04T11:18:38.709Z,3.03
2023-05-04T11:21:12.484Z,1.93
2023-05-04T11:23:43.852Z,2.20
2023-05-04T11:26:14.917Z,2.50
2023-05-04T11:28:45.806Z,2.35
2023-05-04T11:31:17.214Z,2.17
2023-05-04T11:33:50.304Z,2.05
2023-05-04T11:36:23.606Z,2.15
2023-05-04T11:38:58.856Z,2.50
2023-05-04T11:41:29.893Z,2.58
2023-05-04T11:44:01.915Z,2.10
2023-05-04T11:46:35.147Z,2.13
2023-05-04T11:49:06.872Z,2.75
2023-05-04T11:51:38.830Z,2.30
2023-05-04T11:54:20.316Z,2.30
2023-05-04T11:56:50.928Z,2.60
2023-05-04T11:59:24.684Z,2.50
2023-05-04T12:01:55.269Z,2.50
2023-05-04T12:04:31.838Z,2.60
2023-05-04T12:07:09.043Z,2.50
2023-05-04T12:09:47.046Z,2.67
2023-05-04T12:12:20.646Z,2.80
2023-05-04T12:14:54.009Z,3.05
2023-05-04T12:17:24.985Z,4.57
2023-05-04T12:19:58.465Z,2.53
2023-05-04T12:25:01.854Z,2.42
2023-05-04T12:27:32.997Z,1.75
2023-05-04T12:30:04.150Z,2.10
2023-05-04T12:32:34.838Z,2.22
2023-05-04T12:35:06.632Z,3.35
2023-05-04T12:37:39.231Z,2.58
2023-05-04T12:40:27.261Z,3.03
2023-05-04T12:42:58.838Z,2.35
2023-05-04T12:45:29.680Z,2.10
2023-05-04T12:48:00.210Z,2.50
2023-05-04T12:50:31.114Z,2.28
2023-05-04T12:53:04.356Z,2.72
2023-05-04T12:55:35.241Z,2.53
2023-05-04T12:58:06.734Z,2.63
2023-05-04T13:00:39.255Z,2.38
2023-05-04T13:03:09.969Z,2.20
2023-05-04T13:05:40.936Z,1.90
2023-05-04T13:08:12.567Z,2.22
2023-05-04T14:16:11.649Z,2.35
2023-05-04T14:18:42.686Z,2.10
2023-05-04T14:21:13.119Z,2.38
2023-05-04T14:23:44.823Z,2.38
2023-05-04T14:26:15.129Z,2.17
2023-05-04T14:28:46.080Z,1.92
2023-05-04T14:31:18.028Z,2.17
2023-05-04T14:33:48.631Z,1.58
2023-05-04T14:36:19.044Z,2.28
2023-05-04T14:38:49.832Z,1.95
2023-05-04T14:41:20.387Z,1.73
2023-05-04T14:43:51.201Z,2.08
2023-05-04T14:46:23.060Z,1.77
2023-05-04T14:48:53.945Z,2.00
2023-05-04T14:51:26.388Z,2.50
2023-05-04T14:53:59.705Z,2.25
2023-05-04T14:56:30.398Z,1.88
2023-05-04T14:59:01.852Z,2.15
2023-05-04T15:01:33.781Z,1.73
2023-05-04T15:04:04.715Z,1.93
2023-05-04T15:06:35.177Z,2.85
2023-05-04T15:09:05.961Z,2.08
2023-05-04T15:11:36.829Z,2.13
2023-05-04T15:14:07.641Z,2.22
2023-05-04T15:16:39.569Z,2.58
2023-05-04T15:19:13.121Z,2.10
2023-05-04T15:21:43.509Z,2.13
2023-05-04T15:24:16.327Z,2.45
2023-05-04T15:26:50.022Z,2.40
2023-05-04T15:29:24.015Z,2.22
2023-05-04T15:31:59.302Z,2.47
2023-05-04T15:34:30.546Z,2.10
2023-05-04T15:37:03.582Z,2.47
2023-05-04T15:39:34.386Z,1.90
2023-05-04T15:42:05.080Z,2.15
2023-05-04T15:44:36.299Z,2.45
2023-05-04T15:47:10.040Z,2.30
2023-05-04T15:49:41.842Z,2.22
2023-05-04T15:52:12.148Z,1.90
2023-05-04T15:54:43.490Z,2.30
2023-05-04T15:57:13.748Z,2.30
2023-05-04T15:59:44.753Z,2.53
2023-05-04T16:02:16.636Z,2.13
2023-05-04T16:04:47.667Z,2.20
2023-05-04T16:07:18.425Z,2.30
2023-05-04T16:09:49.055Z,2.03
2023-05-04T16:12:21.318Z,1.70
2023-05-04T16:14:52.238Z,1.98
2023-05-04T16:17:25.161Z,1.90
2023-05-04T16:22:26.500Z,2.00
2023-05-04T16:24:57.419Z,2.75
2023-05-04T16:27:28.620Z,2.40
2023-05-04T16:29:59.414Z,2.97
2023-05-04T16:32:31.423Z,2.90
2023-05-04T16:35:02.599Z,3.47
2023-05-04T16:37:33.393Z,5.72
2023-05-04T16:40:14.375Z,12.60
2023-05-04T16:42:46.333Z,6.13
2023-05-04T16:45:17.302Z,6.35
2023-05-04T16:47:49.268Z,10.15
2023-05-04T16:50:21.168Z,8.60
2023-05-04T16:52:51.535Z,3.80
2023-05-04T16:55:24.106Z,3.25
2023-05-04T16:57:58.729Z,4.80
2023-05-04T17:00:31.663Z,4.40
2023-05-04T17:03:05.217Z,3.10
2023-05-04T17:05:36.848Z,2.65
2023-05-04T17:08:08.996Z,2.00
2023-05-04T17:10:40.150Z,3.17
2023-05-04T17:13:11.370Z,2.33
2023-05-04T17:18:16.869Z,5.65
2023-05-04T17:20:47.950Z,29.67
2023-05-04T17:23:18.611Z,21.52
2023-05-04T17:25:51.291Z,18.00
2023-05-04T17:28:21.604Z,16.85
2023-05-04T17:30:55.526Z,15.05
2023-05-04T17:33:32.537Z,13.05
2023-05-04T17:36:06.136Z,15.38
2023-05-04T17:38:37.599Z,14.27
2023-05-04T17:41:10.270Z,13.35
2023-05-04T17:43:41.386Z,7.40
2023-05-04T17:46:12.513Z,4.50
2023-05-04T17:48:46.238Z,4.50
2023-05-04T17:51:17.631Z,3.58
2023-05-04T17:53:48.800Z,3.30
2023-05-04T17:56:21.396Z,3.30
2023-05-04T17:58:52.311Z,2.63
2023-05-04T18:01:23.669Z,2.78
2023-05-04T18:03:58.701Z,3.10
2023-05-04T18:06:29.785Z,3.28
2023-05-04T18:09:02.307Z,3.47
2023-05-04T18:11:33.596Z,3.55
2023-05-04T18:14:06.293Z,3.72
2023-05-04T18:16:40.599Z,4.32
2023-05-04T18:19:12.938Z,3.90
2023-05-04T18:21:44.011Z,4.03
2023-05-04T18:24:19.068Z,5.35
2023-05-04T18:27:18.712Z,6.22
2023-05-04T18:29:50.562Z,13.20
2023-05-04T18:32:21.643Z,16.13
2023-05-04T18:34:54.737Z,17.05
2023-05-04T18:39:58.202Z,22.38
2023-05-04T18:42:32.041Z,23.77
2023-05-04T18:45:07.124Z,21.70
2023-05-04T18:47:44.535Z,18.75
2023-05-04T18:50:17.970Z,17.65
2023-05-04T18:52:50.720Z,16.80
2023-05-04T18:55:22.192Z,10.70
2023-05-04T18:57:53.655Z,5.72
2023-05-04T19:00:24.113Z,5.07
2023-05-04T19:02:54.991Z,4.55
2023-05-04T19:05:26.942Z,5.35
2023-05-04T19:07:58.193Z,8.30
2023-05-04T19:10:29.105Z,6.25
2023-05-04T19:13:00.672Z,6.50
2023-05-04T19:15:33.684Z,6.70
2023-05-04T19:18:04.431Z,5.80
2023-05-04T19:20:38.393Z,6.15
2023-05-04T19:23:10.280Z,4.93
2023-05-04T19:25:40.893Z,5.50
2023-05-04T19:28:11.950Z,6.25
2023-05-04T19:30:42.867Z,9.07
2023-05-04T19:33:14.447Z,15.35
2023-05-04T19:35:59.312Z,15.98
2023-05-04T19:38:30.763Z,15.88
2023-05-04T19:41:05.526Z,12.10
2023-05-04T19:43:36.414Z,7.53
2023-05-04T19:46:08.243Z,6.88
2023-05-04T19:48:40.571Z,8.98
2023-05-04T19:51:12.786Z,12.13
2023-05-04T19:53:43.591Z,11.63
2023-05-04T19:56:14.415Z,11.27
2023-05-04T19:58:50.778Z,10.25
2023-05-04T20:01:21.168Z,9.30
2023-05-04T20:03:53.462Z,11.40
2023-05-04T20:06:29.398Z,13.98
2023-05-04T20:09:05.036Z,9.45
2023-05-04T20:11:38.357Z,16.05
2023-05-04T20:14:14.526Z,20.10
2023-05-04T20:16:49.888Z,19.08
2023-05-04T20:19:23.613Z,21.98
2023-05-04T20:22:02.614Z,24.65
2023-05-04T20:24:42.627Z,20.60
2023-05-04T20:27:19.540Z,14.75
2023-05-04T20:29:55.694Z,13.32
2023-05-04T20:32:32.713Z,16.65
2023-05-04T20:35:07.724Z,15.10
2023-05-04T20:37:51.225Z,17.58
2023-05-04T20:43:04.378Z,13.50
2023-05-04T20:45:37.119Z,13.43
2023-05-04T20:48:11.190Z,16.00
2023-05-04T20:50:45.574Z,15.73
2023-05-04T20:53:19.686Z,12.95
2023-05-04T20:55:51.560Z,12.45
2023-05-04T20:58:23.238Z,12.65
2023-05-04T21:00:55.194Z,12.25
2023-05-04T21:03:26.454Z,9.90
2023-05-04T21:06:01.308Z,11.38
2023-05-04T21:08:35.618Z,14.35
2023-05-04T21:11:09.702Z,17.67
2023-05-04T21:13:43.617Z,18.10
2023-05-04T21:16:15.241Z,17.30
2023-05-04T21:18:48.166Z,15.93
2023-05-04T21:21:19.716Z,15.57
2023-05-04T21:24:01.667Z,12.80
2023-05-04T21:26:32.538Z,13.68
2023-05-04T21:29:04.980Z,12.05
2023-05-04T21:31:36.545Z,16.23
2023-05-04T21:34:09.108Z,17.73
2023-05-04T21:36:44.584Z,15.05
2023-05-04T21:39:18.553Z,11.27
2023-05-04T21:41:56.445Z,12.23
2023-05-04T21:44:28.741Z,12.52
2023-05-04T21:47:01.275Z,12.48
2023-05-04T21:49:32.692Z,13.45
2023-05-04T21:52:04.724Z,13.03
2023-05-04T21:54:38.436Z,12.95
2023-05-04T21:57:09.935Z,11.25
2023-05-04T21:59:41.178Z,14.00
2023-05-04T22:02:11.951Z,26.38
2023-05-04T22:04:44.506Z,22.73
2023-05-04T22:07:15.672Z,19.20
2023-05-04T22:09:47.440Z,17.40
2023-05-04T22:12:18.288Z,12.25
2023-05-04T22:14:48.588Z,9.00
2023-05-04T22:17:19.436Z,9.55
2023-05-04T22:19:49.911Z,8.18
2023-05-04T22:22:20.776Z,8.60
2023-05-04T22:24:52.725Z,7.82
2023-05-04T22:27:23.893Z,7.10
2023-05-04T22:29:54.833Z,6.60
2023-05-04T22:32:25.675Z,6.90
2023-05-04T22:34:56.304Z,7.07
2023-05-04T22:37:27.141Z,7.03
2023-05-04T22:40:00.435Z,7.03
2023-05-04T22:42:31.341Z,6.55
2023-05-04T22:45:01.907Z,6.75
2023-05-04T22:47:33.604Z,6.20
2023-05-04T22:50:04.104Z,6.55
2023-05-04T22:52:35.043Z,6.97
2023-05-04T22:55:08.426Z,6.05
2023-05-04T22:57:38.997Z,6.95
2023-05-04T23:00:10.962Z,6.07
2023-05-04T23:02:42.261Z,6.13
2023-05-04T23:05:13.155Z,7.68
2023-05-04T23:07:43.967Z,6.32
2023-05-04T23:10:15.881Z,6.43
2023-05-04T23:12:46.653Z,7.43
2023-05-04T23:15:18.268Z,6.50
2023-05-04T23:17:49.137Z,7.10
2023-05-04T23:20:19.747Z,7.65
2023-05-04T23:22:50.532Z,22.48
2023-05-04T23:25:22.855Z,20.90
2023-05-04T23:27:53.789Z,21.88
2023-05-04T23:30:24.264Z,16.60
2023-05-04T23:32:55.248Z,9.80
2023-05-04T23:35:26.903Z,8.90
2023-05-04T23:37:57.717Z,7.95
2023-05-04T23:40:29.755Z,7.22
2023-05-04T23:43:01.157Z,6.95
2023-05-04T23:45:31.724Z,8.30
2023-05-04T23:48:03.047Z,6.32
2023-05-04T23:50:33.503Z,6.75
2023-05-04T23:53:04.537Z,6.32
2023-05-04T23:55:36.386Z,6.35
2023-05-04T23:58:07.185Z,6.65
